sensor_id;sensor_type;location;lat;lon;timestamp;P1;durP1;ratioP1;P2;durP2;ratioP2
55710;SDS011;41612;51.994;5.880;2022-11-20T13:47:23;45.20;;;26.50;;
55710;SDS011;41612;51.994;5.880;2022-11-20T13:49:51;57.22;;;31.95;;
55710;SDS011;41612;51.994;5.880;2022-11-20T13:54:53;60.55;;;35.58;;
55710;SDS011;41612;51.994;5.880;2022-11-20T13:57:30;61.40;;;34.75;;
55710;SDS011;41612;51.994;5.880;2022-11-20T14:00:03;49.70;;;30.27;;
55710;SDS011;41612;51.994;5.880;2022-11-20T14:02:36;54.22;;;31.65;;
55710;SDS011;41612;51.994;5.880;2022-11-20T14:05:02;53.97;;;30.67;;
55710;SDS011;41612;51.994;5.880;2022-11-20T14:07:37;52.65;;;31.17;;
55710;SDS011;41612;51.994;5.880;2022-11-20T14:10:19;53.13;;;31.23;;
55710;SDS011;41612;51.994;5.880;2022-11-20T14:12:52;51.92;;;30.80;;
55710;SDS011;41612;51.994;5.880;2022-11-20T14:15:32;49.85;;;29.80;;
55710;SDS011;41612;51.994;5.880;2022-11-20T14:17:59;51.58;;;30.65;;
55710;SDS011;41612;51.994;5.880;2022-11-20T14:20:36;49.38;;;29.00;;
55710;SDS011;41612;51.994;5.880;2022-11-20T14:23:03;53.78;;;32.25;;
55710;SDS011;41612;51.994;5.880;2022-11-20T14:25:30;49.10;;;29.77;;
55710;SDS011;41612;51.994;5.880;2022-11-20T14:27:57;56.75;;;32.22;;
55710;SDS011;41612;51.994;5.880;2022-11-20T14:30:25;37.47;;;22.70;;
55710;SDS011;41612;51.994;5.880;2022-11-20T14:32:53;41.67;;;25.15;;
55710;SDS011;41612;51.994;5.880;2022-11-20T14:35:23;52.90;;;29.83;;
55710;SDS011;41612;51.994;5.880;2022-11-20T14:37:50;53.03;;;31.13;;
55710;SDS011;41612;51.994;5.880;2022-11-20T14:40:30;51.17;;;30.77;;
55710;SDS011;41612;51.994;5.880;2022-11-20T14:43:00;49.50;;;30.13;;
55710;SDS011;41612;51.994;5.880;2022-11-20T14:45:26;45.67;;;28.02;;
55710;SDS011;41612;51.994;5.880;2022-11-20T14:47:55;48.92;;;29.05;;
55710;SDS011;41612;51.994;5.880;2022-11-20T14:50:27;51.80;;;31.15;;
55710;SDS011;41612;51.994;5.880;2022-11-20T14:52:55;47.28;;;28.45;;
55710;SDS011;41612;51.994;5.880;2022-11-20T14:55:26;51.53;;;30.30;;
55710;SDS011;41612;51.994;5.880;2022-11-20T14:57:59;58.78;;;32.83;;
55710;SDS011;41612;51.994;5.880;2022-11-20T15:00:53;44.45;;;25.73;;
55710;SDS011;41612;51.994;5.880;2022-11-20T15:03:19;54.47;;;31.23;;
55710;SDS011;41612;51.994;5.880;2022-11-20T15:05:46;52.25;;;29.80;;
55710;SDS011;41612;51.994;5.880;2022-11-20T15:08:13;50.58;;;29.73;;
55710;SDS011;41612;51.994;5.880;2022-11-20T15:10:45;42.05;;;25.42;;
55710;SDS011;41612;51.994;5.880;2022-11-20T15:13:19;49.33;;;27.85;;
55710;SDS011;41612;51.994;5.880;2022-11-20T15:16:02;49.70;;;30.67;;
55710;SDS011;41612;51.994;5.880;2022-11-20T15:18:36;57.03;;;32.25;;
55710;SDS011;41612;51.994;5.880;2022-11-20T15:21:08;45.00;;;26.65;;
55710;SDS011;41612;51.994;5.880;2022-11-20T15:23:39;37.08;;;22.05;;
55710;SDS011;41612;51.994;5.880;2022-11-20T15:26:07;50.13;;;30.13;;
55710;SDS011;41612;51.994;5.880;2022-11-20T15:28:42;51.08;;;28.80;;
55710;SDS011;41612;51.994;5.880;2022-11-20T15:31:12;48.35;;;28.77;;
55710;SDS011;41612;51.994;5.880;2022-11-20T15:33:40;54.90;;;31.50;;
55710;SDS011;41612;51.994;5.880;2022-11-20T15:36:08;42.33;;;24.92;;
55710;SDS011;41612;51.994;5.880;2022-11-20T15:38:33;35.45;;;21.35;;
55710;SDS011;41612;51.994;5.880;2022-11-20T15:41:00;59.05;;;34.25;;
55710;SDS011;41612;51.994;5.880;2022-11-20T15:43:25;51.88;;;30.90;;
55710;SDS011;41612;51.994;5.880;2022-11-20T15:45:52;56.85;;;36.00;;
55710;SDS011;41612;51.994;5.880;2022-11-20T15:48:55;53.97;;;33.17;;
55710;SDS011;41612;51.994;5.880;2022-11-20T15:51:29;61.47;;;36.70;;
55710;SDS011;41612;51.994;5.880;2022-11-20T15:53:57;53.17;;;31.05;;
55710;SDS011;41612;51.994;5.880;2022-11-20T15:56:24;57.50;;;33.13;;
55710;SDS011;41612;51.994;5.880;2022-11-20T15:58:50;59.38;;;33.78;;
55710;SDS011;41612;51.994;5.880;2022-11-20T16:01:17;51.63;;;29.95;;
55710;SDS011;41612;51.994;5.880;2022-11-20T16:03:44;46.20;;;26.95;;
55710;SDS011;41612;51.994;5.880;2022-11-20T16:06:10;56.30;;;33.08;;
55710;SDS011;41612;51.994;5.880;2022-11-20T16:08:36;53.85;;;29.20;;
55710;SDS011;41612;51.994;5.880;2022-11-20T16:11:01;39.50;;;24.83;;
55710;SDS011;41612;51.994;5.880;2022-11-20T16:13:27;51.38;;;27.55;;
55710;SDS011;41612;51.994;5.880;2022-11-20T16:16:24;43.85;;;25.00;;
55710;SDS011;41612;51.994;5.880;2022-11-20T16:18:55;49.90;;;28.40;;
55710;SDS011;41612;51.994;5.880;2022-11-20T16:21:21;36.10;;;20.35;;
55710;SDS011;41612;51.994;5.880;2022-11-20T16:23:59;36.53;;;22.58;;
55710;SDS011;41612;51.994;5.880;2022-11-20T16:26:26;28.45;;;17.35;;
55710;SDS011;41612;51.994;5.880;2022-11-20T16:28:52;33.05;;;19.90;;
55710;SDS011;41612;51.994;5.880;2022-11-20T16:31:19;32.03;;;18.02;;
55710;SDS011;41612;51.994;5.880;2022-11-20T16:33:55;35.20;;;19.83;;
55710;SDS011;41612;51.994;5.880;2022-11-20T16:36:22;31.30;;;18.95;;
55710;SDS011;41612;51.994;5.880;2022-11-20T16:38:59;45.83;;;26.02;;
55710;SDS011;41612;51.994;5.880;2022-11-20T16:41:26;35.92;;;21.58;;
55710;SDS011;41612;51.994;5.880;2022-11-20T16:43:55;37.55;;;22.58;;
55710;SDS011;41612;51.994;5.880;2022-11-20T16:46:22;34.30;;;20.67;;
55710;SDS011;41612;51.994;5.880;2022-11-20T16:48:54;28.88;;;18.15;;
55710;SDS011;41612;51.994;5.880;2022-11-20T16:51:22;27.02;;;15.50;;
55710;SDS011;41612;51.994;5.880;2022-11-20T16:53:49;25.65;;;16.35;;
55710;SDS011;41612;51.994;5.880;2022-11-20T16:56:16;31.17;;;18.95;;
55710;SDS011;41612;51.994;5.880;2022-11-20T16:58:44;32.67;;;18.92;;
55710;SDS011;41612;51.994;5.880;2022-11-20T17:01:13;29.90;;;18.25;;
55710;SDS011;41612;51.994;5.880;2022-11-20T17:03:40;26.85;;;16.92;;
55710;SDS011;41612;51.994;5.880;2022-11-20T17:06:11;27.52;;;17.67;;
55710;SDS011;41612;51.994;5.880;2022-11-20T17:08:48;31.50;;;19.98;;
55710;SDS011;41612;51.994;5.880;2022-11-20T17:11:15;30.58;;;19.08;;
55710;SDS011;41612;51.994;5.880;2022-11-20T17:13:43;37.08;;;23.27;;
55710;SDS011;41612;51.994;5.880;2022-11-20T17:16:10;41.20;;;23.92;;
55710;SDS011;41612;51.994;5.880;2022-11-20T17:18:37;36.80;;;22.35;;
55710;SDS011;41612;51.994;5.880;2022-11-20T17:21:04;36.85;;;22.58;;
55710;SDS011;41612;51.994;5.880;2022-11-20T17:23:30;32.58;;;21.85;;
55710;SDS011;41612;51.994;5.880;2022-11-20T17:26:02;32.30;;;20.13;;
55710;SDS011;41612;51.994;5.880;2022-11-20T17:28:30;34.55;;;20.42;;
55710;SDS011;41612;51.994;5.880;2022-11-20T17:31:00;36.38;;;22.60;;
55710;SDS011;41612;51.994;5.880;2022-11-20T17:33:35;35.85;;;20.95;;
55710;SDS011;41612;51.994;5.880;2022-11-20T17:36:02;35.38;;;20.00;;
55710;SDS011;41612;51.994;5.880;2022-11-20T17:38:28;32.63;;;21.38;;
55710;SDS011;41612;51.994;5.880;2022-11-20T17:41:00;35.50;;;21.02;;
55710;SDS011;41612;51.994;5.880;2022-11-20T17:43:30;31.85;;;20.42;;
55710;SDS011;41612;51.994;5.880;2022-11-20T17:45:57;34.30;;;21.83;;
55710;SDS011;41612;51.994;5.880;2022-11-20T17:48:23;34.50;;;21.35;;
55710;SDS011;41612;51.994;5.880;2022-11-20T17:50:49;45.55;;;24.00;;
55710;SDS011;41612;51.994;5.880;2022-11-20T17:53:15;35.67;;;21.00;;
55710;SDS011;41612;51.994;5.880;2022-11-20T17:55:40;36.38;;;22.73;;
55710;SDS011;41612;51.994;5.880;2022-11-20T17:58:28;33.30;;;20.55;;
55710;SDS011;41612;51.994;5.880;2022-11-20T18:00:53;30.90;;;20.92;;
55710;SDS011;41612;51.994;5.880;2022-11-20T18:03:19;38.30;;;23.17;;
55710;SDS011;41612;51.994;5.880;2022-11-20T18:05:45;31.05;;;20.70;;
55710;SDS011;41612;51.994;5.880;2022-11-20T18:08:10;36.67;;;21.67;;
55710;SDS011;41612;51.994;5.880;2022-11-20T18:10:36;31.55;;;19.90;;
55710;SDS011;41612;51.994;5.880;2022-11-20T18:13:02;31.50;;;19.27;;
55710;SDS011;41612;51.994;5.880;2022-11-20T18:15:28;32.33;;;19.83;;
55710;SDS011;41612;51.994;5.880;2022-11-20T18:17:54;28.15;;;20.13;;
55710;SDS011;41612;51.994;5.880;2022-11-20T18:20:20;28.55;;;18.83;;
55710;SDS011;41612;51.994;5.880;2022-11-20T18:22:45;32.55;;;19.55;;
55710;SDS011;41612;51.994;5.880;2022-11-20T18:25:11;34.83;;;22.00;;
55710;SDS011;41612;51.994;5.880;2022-11-20T18:27:37;32.40;;;19.88;;
55710;SDS011;41612;51.994;5.880;2022-11-20T18:30:03;34.92;;;23.02;;
55710;SDS011;41612;51.994;5.880;2022-11-20T18:32:29;31.23;;;19.20;;
55710;SDS011;41612;51.994;5.880;2022-11-20T18:34:55;26.65;;;18.38;;
55710;SDS011;41612;51.994;5.880;2022-11-20T18:37:20;28.02;;;17.77;;
55710;SDS011;41612;51.994;5.880;2022-11-20T18:39:46;34.97;;;19.42;;
55710;SDS011;41612;51.994;5.880;2022-11-20T18:42:14;27.95;;;18.88;;
55710;SDS011;41612;51.994;5.880;2022-11-20T18:44:59;27.67;;;18.00;;
55710;SDS011;41612;51.994;5.880;2022-11-20T18:47:27;30.77;;;19.40;;
55710;SDS011;41612;51.994;5.880;2022-11-20T18:49:55;26.48;;;17.40;;
55710;SDS011;41612;51.994;5.880;2022-11-20T18:52:24;26.92;;;17.33;;
55710;SDS011;41612;51.994;5.880;2022-11-20T18:54:58;25.75;;;16.27;;
55710;SDS011;41612;51.994;5.880;2022-11-20T18:57:25;25.67;;;18.63;;
55710;SDS011;41612;51.994;5.880;2022-11-20T18:59:54;29.63;;;19.13;;
55710;SDS011;41612;51.994;5.880;2022-11-20T19:02:24;26.52;;;16.88;;
55710;SDS011;41612;51.994;5.880;2022-11-20T19:04:50;24.27;;;15.68;;
55710;SDS011;41612;51.994;5.880;2022-11-20T19:07:16;25.48;;;17.00;;
55710;SDS011;41612;51.994;5.880;2022-11-20T19:09:43;32.72;;;20.17;;
55710;SDS011;41612;51.994;5.880;2022-11-20T19:12:12;35.80;;;21.70;;
55710;SDS011;41612;51.994;5.880;2022-11-20T19:14:38;23.77;;;14.65;;
55710;SDS011;41612;51.994;5.880;2022-11-20T19:17:04;27.45;;;18.25;;
55710;SDS011;41612;51.994;5.880;2022-11-20T19:19:31;22.88;;;15.20;;
55710;SDS011;41612;51.994;5.880;2022-11-20T19:22:03;25.70;;;16.98;;
55710;SDS011;41612;51.994;5.880;2022-11-20T19:24:29;24.20;;;15.52;;
55710;SDS011;41612;51.994;5.880;2022-11-20T19:26:55;23.95;;;17.85;;
55710;SDS011;41612;51.994;5.880;2022-11-20T19:29:22;23.50;;;15.63;;
55710;SDS011;41612;51.994;5.880;2022-11-20T19:31:52;27.25;;;16.27;;
55710;SDS011;41612;51.994;5.880;2022-11-20T19:34:23;26.63;;;15.57;;
55710;SDS011;41612;51.994;5.880;2022-11-20T19:36:53;23.42;;;15.32;;
55710;SDS011;41612;51.994;5.880;2022-11-20T19:39:19;22.67;;;15.45;;
55710;SDS011;41612;51.994;5.880;2022-11-20T19:41:47;25.58;;;15.80;;
55710;SDS011;41612;51.994;5.880;2022-11-20T19:44:15;20.23;;;14.55;;
55710;SDS011;41612;51.994;5.880;2022-11-20T19:46:42;24.15;;;14.77;;
55710;SDS011;41612;51.994;5.880;2022-11-20T19:49:09;22.35;;;14.95;;
55710;SDS011;41612;51.994;5.880;2022-11-20T19:51:36;24.55;;;16.15;;
55710;SDS011;41612;51.994;5.880;2022-11-20T19:54:04;21.80;;;14.73;;
55710;SDS011;41612;51.994;5.880;2022-11-20T19:56:31;23.63;;;16.20;;
55710;SDS011;41612;51.994;5.880;2022-11-20T19:58:57;26.85;;;18.70;;
55710;SDS011;41612;51.994;5.880;2022-11-20T20:01:25;30.88;;;19.38;;
55710;SDS011;41612;51.994;5.880;2022-11-20T20:03:53;26.08;;;17.00;;
55710;SDS011;41612;51.994;5.880;2022-11-20T20:06:21;24.85;;;16.90;;
55710;SDS011;41612;51.994;5.880;2022-11-20T20:08:55;26.90;;;17.23;;
55710;SDS011;41612;51.994;5.880;2022-11-20T20:11:26;25.63;;;16.17;;
55710;SDS011;41612;51.994;5.880;2022-11-20T20:13:54;27.85;;;16.98;;
55710;SDS011;41612;51.994;5.880;2022-11-20T20:16:22;25.13;;;16.02;;
55710;SDS011;41612;51.994;5.880;2022-11-20T20:18:52;27.00;;;15.23;;
55710;SDS011;41612;51.994;5.880;2022-11-20T20:21:18;24.17;;;16.00;;
55710;SDS011;41612;51.994;5.880;2022-11-20T20:23:44;26.42;;;17.80;;
55710;SDS011;41612;51.994;5.880;2022-11-20T20:26:17;26.48;;;16.27;;
55710;SDS011;41612;51.994;5.880;2022-11-20T20:28:43;30.40;;;18.60;;
55710;SDS011;41612;51.994;5.880;2022-11-20T20:31:09;28.92;;;17.77;;
55710;SDS011;41612;51.994;5.880;2022-11-20T20:33:37;24.13;;;15.55;;
55710;SDS011;41612;51.994;5.880;2022-11-20T20:36:03;24.70;;;15.90;;
55710;SDS011;41612;51.994;5.880;2022-11-20T20:38:33;23.67;;;14.63;;
55710;SDS011;41612;51.994;5.880;2022-11-20T20:41:00;24.33;;;15.73;;
55710;SDS011;41612;51.994;5.880;2022-11-20T20:43:29;23.02;;;15.80;;
55710;SDS011;41612;51.994;5.880;2022-11-20T20:45:55;23.83;;;15.23;;
55710;SDS011;41612;51.994;5.880;2022-11-20T20:48:24;24.67;;;16.20;;
55710;SDS011;41612;51.994;5.880;2022-11-20T20:53:19;21.60;;;14.25;;
55710;SDS011;41612;51.994;5.880;2022-11-20T20:55:52;24.25;;;15.18;;
55710;SDS011;41612;51.994;5.880;2022-11-20T20:58:21;23.98;;;16.23;;
55710;SDS011;41612;51.994;5.880;2022-11-20T21:00:47;22.95;;;15.20;;
55710;SDS011;41612;51.994;5.880;2022-11-20T21:03:13;24.45;;;16.45;;
55710;SDS011;41612;51.994;5.880;2022-11-20T21:05:38;22.83;;;14.88;;
55710;SDS011;41612;51.994;5.880;2022-11-20T21:08:04;24.88;;;15.90;;
55710;SDS011;41612;51.994;5.880;2022-11-20T21:11:00;25.40;;;16.30;;
55710;SDS011;41612;51.994;5.880;2022-11-20T21:13:27;24.80;;;15.98;;
55710;SDS011;41612;51.994;5.880;2022-11-20T21:15:54;24.10;;;13.98;;
55710;SDS011;41612;51.994;5.880;2022-11-20T21:18:20;29.77;;;18.17;;
55710;SDS011;41612;51.994;5.880;2022-11-20T21:20:49;23.38;;;15.73;;
55710;SDS011;41612;51.994;5.880;2022-11-20T21:23:34;24.45;;;16.17;;
55710;SDS011;41612;51.994;5.880;2022-11-20T21:26:07;27.15;;;17.23;;
55710;SDS011;41612;51.994;5.880;2022-11-20T21:28:33;26.10;;;16.73;;
55710;SDS011;41612;51.994;5.880;2022-11-20T21:31:05;24.38;;;16.52;;
55710;SDS011;41612;51.994;5.880;2022-11-20T21:33:36;24.10;;;15.80;;
55710;SDS011;41612;51.994;5.880;2022-11-20T21:36:03;23.95;;;15.35;;
55710;SDS011;41612;51.994;5.880;2022-11-20T21:38:29;25.85;;;17.13;;
55710;SDS011;41612;51.994;5.880;2022-11-20T21:40:58;44.40;;;26.55;;
55710;SDS011;41612;51.994;5.880;2022-11-20T21:43:24;45.78;;;28.08;;
55710;SDS011;41612;51.994;5.880;2022-11-20T21:45:50;34.50;;;22.70;;
55710;SDS011;41612;51.994;5.880;2022-11-20T21:48:17;36.95;;;22.77;;
55710;SDS011;41612;51.994;5.880;2022-11-20T21:50:42;42.05;;;25.70;;
55710;SDS011;41612;51.994;5.880;2022-11-20T21:53:08;30.35;;;18.45;;
55710;SDS011;41612;51.994;5.880;2022-11-20T21:55:34;29.05;;;17.63;;
55710;SDS011;41612;51.994;5.880;2022-11-20T21:58:00;32.08;;;19.70;;
55710;SDS011;41612;51.994;5.880;2022-11-20T22:00:25;27.55;;;16.60;;
55710;SDS011;41612;51.994;5.880;2022-11-20T22:02:51;33.10;;;19.50;;
55710;SDS011;41612;51.994;5.880;2022-11-20T22:05:16;27.23;;;17.25;;
55710;SDS011;41612;51.994;5.880;2022-11-20T22:07:43;38.25;;;23.75;;
55710;SDS011;41612;51.994;5.880;2022-11-20T22:10:09;30.83;;;18.92;;
55710;SDS011;41612;51.994;5.880;2022-11-20T22:12:35;26.88;;;17.70;;
55710;SDS011;41612;51.994;5.880;2022-11-20T22:15:01;27.17;;;17.33;;
55710;SDS011;41612;51.994;5.880;2022-11-20T22:17:27;30.73;;;17.85;;
55710;SDS011;41612;51.994;5.880;2022-11-20T22:20:13;26.63;;;16.90;;
55710;SDS011;41612;51.994;5.880;2022-11-20T22:22:39;26.70;;;17.13;;
55710;SDS011;41612;51.994;5.880;2022-11-20T22:25:05;25.55;;;17.00;;
55710;SDS011;41612;51.994;5.880;2022-11-20T22:27:31;27.75;;;17.20;;
55710;SDS011;41612;51.994;5.880;2022-11-20T22:29:57;27.60;;;17.33;;
55710;SDS011;41612;51.994;5.880;2022-11-20T22:32:22;26.65;;;18.40;;
55710;SDS011;41612;51.994;5.880;2022-11-20T22:34:48;26.55;;;17.73;;
55710;SDS011;41612;51.994;5.880;2022-11-20T22:37:13;26.33;;;17.73;;
55710;SDS011;41612;51.994;5.880;2022-11-20T22:39:39;30.20;;;17.92;;
55710;SDS011;41612;51.994;5.880;2022-11-20T22:42:05;28.73;;;18.33;;
55710;SDS011;41612;51.994;5.880;2022-11-20T22:44:30;25.63;;;17.60;;
55710;SDS011;41612;51.994;5.880;2022-11-20T22:46:56;30.40;;;18.25;;
55710;SDS011;41612;51.994;5.880;2022-11-20T22:49:22;30.33;;;18.23;;
55710;SDS011;41612;51.994;5.880;2022-11-20T22:51:47;29.40;;;18.15;;
55710;SDS011;41612;51.994;5.880;2022-11-20T22:54:13;30.73;;;18.23;;
55710;SDS011;41612;51.994;5.880;2022-11-20T22:56:39;31.10;;;19.55;;
55710;SDS011;41612;51.994;5.880;2022-11-20T22:59:05;29.08;;;18.05;;
55710;SDS011;41612;51.994;5.880;2022-11-20T23:01:34;28.83;;;18.23;;
55710;SDS011;41612;51.994;5.880;2022-11-20T23:04:05;29.20;;;18.60;;
55710;SDS011;41612;51.994;5.880;2022-11-20T23:06:34;28.75;;;18.13;;
55710;SDS011;41612;51.994;5.880;2022-11-20T23:09:00;30.70;;;18.00;;
55710;SDS011;41612;51.994;5.880;2022-11-20T23:11:29;26.83;;;16.20;;
55710;SDS011;41612;51.994;5.880;2022-11-20T23:13:56;28.65;;;16.48;;
55710;SDS011;41612;51.994;5.880;2022-11-20T23:16:28;28.90;;;17.83;;
55710;SDS011;41612;51.994;5.880;2022-11-20T23:18:55;28.00;;;17.17;;
55710;SDS011;41612;51.994;5.880;2022-11-20T23:21:22;31.88;;;18.02;;
55710;SDS011;41612;51.994;5.880;2022-11-20T23:23:49;28.90;;;17.38;;
55710;SDS011;41612;51.994;5.880;2022-11-20T23:26:17;27.00;;;17.00;;
55710;SDS011;41612;51.994;5.880;2022-11-20T23:28:45;31.55;;;20.25;;
55710;SDS011;41612;51.994;5.880;2022-11-20T23:31:11;30.60;;;19.08;;
55710;SDS011;41612;51.994;5.880;2022-11-20T23:33:39;26.30;;;16.33;;
55710;SDS011;41612;51.994;5.880;2022-11-20T23:36:06;27.48;;;18.00;;
55710;SDS011;41612;51.994;5.880;2022-11-20T23:38:32;28.13;;;17.58;;
55710;SDS011;41612;51.994;5.880;2022-11-20T23:40:58;29.60;;;18.10;;
55710;SDS011;41612;51.994;5.880;2022-11-20T23:43:24;28.88;;;17.63;;
55710;SDS011;41612;51.994;5.880;2022-11-20T23:45:51;27.10;;;17.48;;
55710;SDS011;41612;51.994;5.880;2022-11-20T23:48:18;28.50;;;18.75;;
55710;SDS011;41612;51.994;5.880;2022-11-20T23:50:45;27.58;;;17.90;;
55710;SDS011;41612;51.994;5.880;2022-11-20T23:53:11;27.13;;;17.45;;
55710;SDS011;41612;51.994;5.880;2022-11-20T23:55:44;27.42;;;17.48;;
55710;SDS011;41612;51.994;5.880;2022-11-20T23:58:12;27.38;;;18.33;;
